sensor_id;sensor_type;location;lat;lon;timestamp;pressure;altitude;pressure_sealevel;temperature;humidity
57442;BME280;43284;47.042;15.498;2023-02-19T00:00:59;97361.00;;;1.84;90.57
57442;BME280;43284;47.042;15.498;2023-02-19T00:03:28;97364.50;;;1.77;90.87
57442;BME280;43284;47.042;15.498;2023-02-19T00:05:54;97364.53;;;1.74;90.48
57442;BME280;43284;47.042;15.498;2023-02-19T00:08:20;97360.28;;;1.72;90.92
57442;BME280;43284;47.042;15.498;2023-02-19T00:10:45;97362.06;;;1.63;90.55
57442;BME280;43284;47.042;15.498;2023-02-19T00:13:11;97351.84;;;1.54;92.02
57442;BME280;43284;47.042;15.498;2023-02-19T00:15:37;97363.72;;;1.69;93.20
57442;BME280;43284;47.042;15.498;2023-02-19T00:18:03;97351.66;;;1.74;92.71
57442;BME280;43284;47.042;15.498;2023-02-19T00:20:28;97363.78;;;1.61;91.47
57442;BME280;43284;47.042;15.498;2023-02-19T00:22:54;97362.09;;;1.60;91.50
57442;BME280;43284;47.042;15.498;2023-02-19T00:25:19;97362.06;;;1.65;91.72
57442;BME280;43284;47.042;15.498;2023-02-19T00:27:45;97356.06;;;1.61;91.73
57442;BME280;43284;47.042;15.498;2023-02-19T00:30:11;97358.59;;;1.69;92.47
57442;BME280;43284;47.042;15.498;2023-02-19T00:32:36;97355.13;;;1.70;92.41
57442;BME280;43284;47.042;15.498;2023-02-19T00:35:02;97364.47;;;1.80;92.38
57442;BME280;43284;47.042;15.498;2023-02-19T00:37:28;97357.66;;;1.75;91.86
57442;BME280;43284;47.042;15.498;2023-02-19T00:39:54;97366.25;;;1.72;91.01
57442;BME280;43284;47.042;15.498;2023-02-19T00:42:19;97368.09;;;1.64;91.47
57442;BME280;43284;47.042;15.498;2023-02-19T00:44:45;97369.88;;;1.56;91.57
57442;BME280;43284;47.042;15.498;2023-02-19T00:47:11;97369.00;;;1.57;92.49
57442;BME280;43284;47.042;15.498;2023-02-19T00:49:36;97364.72;;;1.56;92.84
57442;BME280;43284;47.042;15.498;2023-02-19T00:52:02;97373.28;;;1.58;92.31
57442;BME280;43284;47.042;15.498;2023-02-19T00:54:28;97376.56;;;1.72;92.45
57442;BME280;43284;47.042;15.498;2023-02-19T00:56:53;97375.78;;;1.69;92.49
57442;BME280;43284;47.042;15.498;2023-02-19T00:59:19;97368.09;;;1.62;92.30
57442;BME280;43284;47.042;15.498;2023-02-19T01:01:45;97381.03;;;1.56;92.02
57442;BME280;43284;47.042;15.498;2023-02-19T01:04:10;97376.75;;;1.54;92.26
57442;BME280;43284;47.042;15.498;2023-02-19T01:06:36;97370.69;;;1.59;92.82
57442;BME280;43284;47.042;15.498;2023-02-19T01:09:03;97364.69;;;1.57;92.59
57442;BME280;43284;47.042;15.498;2023-02-19T01:11:29;97357.00;;;1.56;92.87
57442;BME280;43284;47.042;15.498;2023-02-19T01:13:59;97351.84;;;1.56;92.39
57442;BME280;43284;47.042;15.498;2023-02-19T01:16:26;97349.28;;;1.53;92.74
57442;BME280;43284;47.042;15.498;2023-02-19T01:18:55;97338.13;;;1.54;93.48
57442;BME280;43284;47.042;15.498;2023-02-19T01:21:26;97336.34;;;1.60;92.79
57442;BME280;43284;47.042;15.498;2023-02-19T01:23:53;97347.53;;;1.58;91.61
57442;BME280;43284;47.042;15.498;2023-02-19T01:26:24;97344.16;;;1.51;91.84
57442;BME280;43284;47.042;15.498;2023-02-19T01:28:51;97334.72;;;1.52;91.85
57442;BME280;43284;47.042;15.498;2023-02-19T01:31:19;97327.81;;;1.54;91.78
57442;BME280;43284;47.042;15.498;2023-02-19T01:33:48;97330.50;;;1.44;91.56
57442;BME280;43284;47.042;15.498;2023-02-19T01:36:14;97324.47;;;1.44;91.92
57442;BME280;43284;47.042;15.498;2023-02-19T01:38:40;97313.25;;;1.51;92.87
57442;BME280;43284;47.042;15.498;2023-02-19T01:41:07;97311.53;;;1.53;93.16
57442;BME280;43284;47.042;15.498;2023-02-19T01:43:52;97308.94;;;1.50;93.01
57442;BME280;43284;47.042;15.498;2023-02-19T01:46:19;97299.47;;;1.55;93.01
57442;BME280;43284;47.042;15.498;2023-02-19T01:48:45;97296.81;;;1.61;94.25
57442;BME280;43284;47.042;15.498;2023-02-19T01:51:17;97314.94;;;1.51;92.68
57442;BME280;43284;47.042;15.498;2023-02-19T01:53:46;97318.41;;;1.51;93.04
57442;BME280;43284;47.042;15.498;2023-02-19T01:56:17;97315.78;;;1.54;93.76
57442;BME280;43284;47.042;15.498;2023-02-19T01:58:43;97324.47;;;1.47;92.51
57442;BME280;43284;47.042;15.498;2023-02-19T02:01:09;97313.25;;;1.48;93.19
57442;BME280;43284;47.042;15.498;2023-02-19T02:03:37;97307.16;;;1.57;93.53
57442;BME280;43284;47.042;15.498;2023-02-19T02:06:24;97316.56;;;1.62;92.05
57442;BME280;43284;47.042;15.498;2023-02-19T02:08:54;97317.34;;;1.68;92.25
57442;BME280;43284;47.042;15.498;2023-02-19T02:11:43;97312.22;;;1.68;91.79
57442;BME280;43284;47.042;15.498;2023-02-19T02:14:10;97330.28;;;1.63;91.76
57442;BME280;43284;47.042;15.498;2023-02-19T02:33:00;97309.63;;;1.66;91.24
57442;BME280;43284;47.042;15.498;2023-02-19T02:35:43;97299.31;;;1.68;91.48
57442;BME280;43284;47.042;15.498;2023-02-19T02:38:11;97305.38;;;1.67;90.86
57442;BME280;43284;47.042;15.498;2023-02-19T02:40:41;97311.25;;;1.76;90.49
57442;BME280;43284;47.042;15.498;2023-02-19T02:43:08;97299.31;;;1.71;90.39
57442;BME280;43284;47.042;15.498;2023-02-19T02:45:33;97300.28;;;1.60;90.16
57442;BME280;43284;47.042;15.498;2023-02-19T02:48:01;97294.31;;;1.55;90.78
57442;BME280;43284;47.042;15.498;2023-02-19T02:50:35;97287.47;;;1.53;91.13
57442;BME280;43284;47.042;15.498;2023-02-19T02:53:07;97292.66;;;1.50;91.28
57442;BME280;43284;47.042;15.498;2023-02-19T02:55:54;97307.38;;;1.38;91.16
57442;BME280;43284;47.042;15.498;2023-02-19T02:58:22;97291.03;;;1.39;91.94
57442;BME280;43284;47.042;15.498;2023-02-19T03:00:59;97304.75;;;1.40;91.77
57442;BME280;43284;47.042;15.498;2023-02-19T03:03:46;97303.91;;;1.42;91.70
57442;BME280;43284;47.042;15.498;2023-02-19T03:06:16;97299.59;;;1.41;91.75
57442;BME280;43284;47.042;15.498;2023-02-19T03:08:56;97302.97;;;1.48;92.15
57442;BME280;43284;47.042;15.498;2023-02-19T03:11:23;97298.72;;;1.44;91.76
57442;BME280;43284;47.042;15.498;2023-02-19T03:14:17;97283.25;;;1.46;92.26
57442;BME280;43284;47.042;15.498;2023-02-19T03:17:17;97278.94;;;1.48;92.62
57442;BME280;43284;47.042;15.498;2023-02-19T03:20:09;97282.28;;;1.56;91.95
57442;BME280;43284;47.042;15.498;2023-02-19T03:22:37;97281.44;;;1.55;92.71
57442;BME280;43284;47.042;15.498;2023-02-19T03:25:14;97274.50;;;1.60;92.00
57442;BME280;43284;47.042;15.498;2023-02-19T03:28:02;97272.00;;;1.54;92.29
57442;BME280;43284;47.042;15.498;2023-02-19T03:30:32;97272.88;;;1.52;92.55
57442;BME280;43284;47.042;15.498;2023-02-19T03:33:14;97284.97;;;1.45;91.65
57442;BME280;43284;47.042;15.498;2023-02-19T03:35:54;97291.88;;;1.43;92.22
57442;BME280;43284;47.042;15.498;2023-02-19T03:38:25;97279.00;;;1.43;92.47
57442;BME280;43284;47.042;15.498;2023-02-19T03:41:06;97287.59;;;1.39;92.42
57442;BME280;43284;47.042;15.498;2023-02-19T03:43:40;97288.44;;;1.41;92.00
57442;BME280;43284;47.042;15.498;2023-02-19T03:49:22;97277.19;;;1.51;91.68
57442;BME280;43284;47.042;15.498;2023-02-19T03:54:49;97284.19;;;1.37;92.25
57442;BME280;43284;47.042;15.498;2023-02-19T03:57:39;97280.78;;;1.38;92.39
57442;BME280;43284;47.042;15.498;2023-02-19T04:00:17;97282.47;;;1.37;92.04
57442;BME280;43284;47.042;15.498;2023-02-19T04:03:10;97283.31;;;1.39;92.83
57442;BME280;43284;47.042;15.498;2023-02-19T04:05:41;97285.94;;;1.35;92.33
57442;BME280;43284;47.042;15.498;2023-02-19T04:08:14;97276.56;;;1.29;93.00
57442;BME280;43284;47.042;15.498;2023-02-19T04:10:40;97278.31;;;1.24;92.76
57442;BME280;43284;47.042;15.498;2023-02-19T04:13:37;97279.16;;;1.24;93.02
57442;BME280;43284;47.042;15.498;2023-02-19T04:16:15;97273.16;;;1.24;93.10
57442;BME280;43284;47.042;15.498;2023-02-19T04:18:46;97281.72;;;1.28;92.70
57442;BME280;43284;47.042;15.498;2023-02-19T04:21:13;97281.78;;;1.21;92.67
57442;BME280;43284;47.042;15.498;2023-02-19T04:23:42;97277.53;;;1.17;92.73
57442;BME280;43284;47.042;15.498;2023-02-19T04:26:09;97271.53;;;1.17;93.00
57442;BME280;43284;47.042;15.498;2023-02-19T04:28:37;97275.78;;;1.18;93.11
57442;BME280;43284;47.042;15.498;2023-02-19T04:31:03;97279.28;;;1.14;92.77
57442;BME280;43284;47.042;15.498;2023-02-19T04:33:28;97273.25;;;1.15;92.98
57442;BME280;43284;47.042;15.498;2023-02-19T04:35:54;97274.09;;;1.15;93.00
57442;BME280;43284;47.042;15.498;2023-02-19T04:38:20;97268.06;;;1.18;92.81
57442;BME280;43284;47.042;15.498;2023-02-19T04:40:45;97268.13;;;1.13;93.06
57442;BME280;43284;47.042;15.498;2023-02-19T04:43:11;97263.81;;;1.17;92.94
57442;BME280;43284;47.042;15.498;2023-02-19T04:45:37;97269.84;;;1.13;93.17
57442;BME280;43284;47.042;15.498;2023-02-19T04:48:03;97269.84;;;1.14;93.13
57442;BME280;43284;47.042;15.498;2023-02-19T04:50:29;97269.03;;;1.08;93.27
57442;BME280;43284;47.042;15.498;2023-02-19T04:52:55;97261.38;;;1.01;93.49
57442;BME280;43284;47.042;15.498;2023-02-19T04:55:21;97266.56;;;0.95;92.96
57442;BME280;43284;47.042;15.498;2023-02-19T04:57:47;97261.47;;;0.91;93.33
57442;BME280;43284;47.042;15.498;2023-02-19T05:00:13;97261.50;;;0.88;93.73
57442;BME280;43284;47.042;15.498;2023-02-19T05:02:38;97256.38;;;0.85;93.33
57442;BME280;43284;47.042;15.498;2023-02-19T05:05:04;97262.34;;;0.90;93.09
57442;BME280;43284;47.042;15.498;2023-02-19T05:07:30;97265.81;;;0.84;93.87
57442;BME280;43284;47.042;15.498;2023-02-19T05:09:56;97261.50;;;0.85;94.02
57442;BME280;43284;47.042;15.498;2023-02-19T05:12:24;97260.66;;;0.84;93.76
57442;BME280;43284;47.042;15.498;2023-02-19T05:14:50;97258.94;;;0.85;93.31
57442;BME280;43284;47.042;15.498;2023-02-19T05:17:15;97258.97;;;0.81;93.58
57442;BME280;43284;47.042;15.498;2023-02-19T05:19:41;97261.50;;;0.83;93.67
57442;BME280;43284;47.042;15.498;2023-02-19T05:22:07;97262.41;;;0.80;93.22
57442;BME280;43284;47.042;15.498;2023-02-19T05:24:32;97266.66;;;0.85;93.90
57442;BME280;43284;47.042;15.498;2023-02-19T05:26:58;97259.78;;;0.90;93.67
57442;BME280;43284;47.042;15.498;2023-02-19T05:29:23;97257.16;;;0.93;94.09
57442;BME280;43284;47.042;15.498;2023-02-19T05:31:49;97252.00;;;0.94;94.60
57442;BME280;43284;47.042;15.498;2023-02-19T05:34:14;97245.09;;;0.99;94.79
57442;BME280;43284;47.042;15.498;2023-02-19T05:36:40;97242.50;;;1.01;95.01
57442;BME280;43284;47.042;15.498;2023-02-19T05:39:06;97239.03;;;1.03;95.42
57442;BME280;43284;47.042;15.498;2023-02-19T05:41:32;97242.41;;;1.12;95.66
57442;BME280;43284;47.042;15.498;2023-02-19T05:43:58;97245.88;;;1.08;94.95
57442;BME280;43284;47.042;15.498;2023-02-19T05:46:26;97246.72;;;1.10;95.92
57442;BME280;43284;47.042;15.498;2023-02-19T05:48:55;97246.56;;;1.22;96.09
57442;BME280;43284;47.042;15.498;2023-02-19T05:51:23;97251.75;;;1.20;96.28
57442;BME280;43284;47.042;15.498;2023-02-19T05:53:51;97253.41;;;1.26;96.74
57442;BME280;43284;47.042;15.498;2023-02-19T05:56:32;97281.56;;;1.44;96.67
57442;BME280;43284;47.042;15.498;2023-02-19T05:59:00;97271.28;;;1.40;95.92
57442;BME280;43284;47.042;15.498;2023-02-19T06:01:28;97281.53;;;1.46;96.40
57442;BME280;43284;47.042;15.498;2023-02-19T06:03:55;97267.63;;;1.59;96.85
57442;BME280;43284;47.042;15.498;2023-02-19T06:06:21;97291.66;;;1.63;96.73
57442;BME280;43284;47.042;15.498;2023-02-19T06:08:48;97253.91;;;1.60;96.20
57442;BME280;43284;47.042;15.498;2023-02-19T06:11:17;97281.28;;;1.69;96.42
57442;BME280;43284;47.042;15.498;2023-02-19T06:13:42;97270.91;;;1.74;95.04
57442;BME280;43284;47.042;15.498;2023-02-19T06:16:08;97261.47;;;1.73;94.94
57442;BME280;43284;47.042;15.498;2023-02-19T06:18:34;97254.63;;;1.72;93.93
57442;BME280;43284;47.042;15.498;2023-02-19T06:21:05;97256.28;;;1.74;93.89
57442;BME280;43284;47.042;15.498;2023-02-19T06:23:31;97259.50;;;1.93;93.67
57442;BME280;43284;47.042;15.498;2023-02-19T06:28:37;97281.56;;;2.16;93.38
57442;BME280;43284;47.042;15.498;2023-02-19T06:31:04;97252.53;;;2.01;93.25
57442;BME280;43284;47.042;15.498;2023-02-19T06:33:31;97294.28;;;2.28;93.68
57442;BME280;43284;47.042;15.498;2023-02-19T06:35:58;97275.56;;;2.14;93.46
57442;BME280;43284;47.042;15.498;2023-02-19T06:38:24;97267.81;;;2.14;94.58
57442;BME280;43284;47.042;15.498;2023-02-19T06:40:50;97287.47;;;2.24;93.61
57442;BME280;43284;47.042;15.498;2023-02-19T06:43:16;97252.28;;;2.20;93.33
57442;BME280;43284;47.042;15.498;2023-02-19T06:45:41;97277.09;;;2.27;93.46
57442;BME280;43284;47.042;15.498;2023-02-19T06:48:07;97262.50;;;2.26;92.70
57442;BME280;43284;47.042;15.498;2023-02-19T06:50:32;97262.44;;;2.32;93.41
57442;BME280;43284;47.042;15.498;2023-02-19T06:52:58;97267.53;;;2.37;92.96
57442;BME280;43284;47.042;15.498;2023-02-19T06:55:23;97258.00;;;2.40;93.09
57442;BME280;43284;47.042;15.498;2023-02-19T06:57:49;97265.72;;;2.42;92.98
57442;BME280;43284;47.042;15.498;2023-02-19T07:00:15;97282.00;;;2.45;92.82
57442;BME280;43284;47.042;15.498;2023-02-19T07:02:40;97271.59;;;2.52;92.65
57442;BME280;43284;47.042;15.498;2023-02-19T07:05:06;97269.81;;;2.55;92.81
57442;BME280;43284;47.042;15.498;2023-02-19T07:07:31;97268.88;;;2.62;92.40
57442;BME280;43284;47.042;15.498;2023-02-19T07:09:57;97278.31;;;2.63;92.03
57442;BME280;43284;47.042;15.498;2023-02-19T07:12:22;97283.41;;;2.66;92.09
57442;BME280;43284;47.042;15.498;2023-02-19T07:14:48;97285.06;;;2.72;92.02
57442;BME280;43284;47.042;15.498;2023-02-19T07:17:13;97290.06;;;2.80;92.06
57442;BME280;43284;47.042;15.498;2023-02-19T07:19:39;97305.53;;;2.84;92.45
57442;BME280;43284;47.042;15.498;2023-02-19T07:22:04;97297.72;;;2.86;92.04
57442;BME280;43284;47.042;15.498;2023-02-19T07:24:30;97283.97;;;2.87;92.02
57442;BME280;43284;47.042;15.498;2023-02-19T07:26:55;97285.66;;;2.88;91.44
57442;BME280;43284;47.042;15.498;2023-02-19T07:29:21;97294.06;;;2.99;91.79
57442;BME280;43284;47.042;15.498;2023-02-19T07:31:47;97275.91;;;3.04;90.77
57442;BME280;43284;47.042;15.498;2023-02-19T07:34:12;97269.88;;;3.05;91.10
57442;BME280;43284;47.042;15.498;2023-02-19T07:36:38;97267.25;;;3.08;90.12
57442;BME280;43284;47.042;15.498;2023-02-19T07:39:04;97273.25;;;3.10;90.29
57442;BME280;43284;47.042;15.498;2023-02-19T07:41:29;97263.72;;;3.12;90.28
57442;BME280;43284;47.042;15.498;2023-02-19T07:43:55;97261.97;;;3.16;90.36
57442;BME280;43284;47.042;15.498;2023-02-19T07:46:22;97257.59;;;3.19;90.34
57442;BME280;43284;47.042;15.498;2023-02-19T07:48:47;97265.31;;;3.21;90.16
57442;BME280;43284;47.042;15.498;2023-02-19T07:51:15;97260.06;;;3.25;89.36
57442;BME280;43284;47.042;15.498;2023-02-19T07:53:44;97249.63;;;3.30;89.00
57442;BME280;43284;47.042;15.498;2023-02-19T07:56:11;97265.91;;;3.35;88.24
57442;BME280;43284;47.042;15.498;2023-02-19T07:58:37;97273.38;;;3.52;88.38
57442;BME280;43284;47.042;15.498;2023-02-19T08:01:13;97270.66;;;3.58;89.17
57442;BME280;43284;47.042;15.498;2023-02-19T08:03:38;97261.91;;;3.65;87.89
57442;BME280;43284;47.042;15.498;2023-02-19T08:06:05;97258.34;;;3.71;88.19
57442;BME280;43284;47.042;15.498;2023-02-19T08:08:30;97248.78;;;3.76;88.60
57442;BME280;43284;47.042;15.498;2023-02-19T08:11:00;97252.13;;;3.80;87.90
57442;BME280;43284;47.042;15.498;2023-02-19T08:13:55;97243.44;;;3.84;87.59
57442;BME280;43284;47.042;15.498;2023-02-19T08:16:21;97261.41;;;3.91;87.29
57442;BME280;43284;47.042;15.498;2023-02-19T08:18:48;97244.78;;;4.02;86.47
57442;BME280;43284;47.042;15.498;2023-02-19T08:21:14;97242.88;;;4.11;85.64
57442;BME280;43284;47.042;15.498;2023-02-19T08:23:42;97249.25;;;4.34;86.33
57442;BME280;43284;47.042;15.498;2023-02-19T08:26:10;97268.16;;;4.38;86.74
57442;BME280;43284;47.042;15.498;2023-02-19T08:28:36;97261.16;;;4.41;85.74
57442;BME280;43284;47.042;15.498;2023-02-19T08:31:03;97267.88;;;4.50;84.92
57442;BME280;43284;47.042;15.498;2023-02-19T08:33:30;97264.41;;;4.51;83.54
57442;BME280;43284;47.042;15.498;2023-02-19T08:35:58;97279.66;;;4.63;83.59
57442;BME280;43284;47.042;15.498;2023-02-19T08:38:25;97274.53;;;4.62;81.53
57442;BME280;43284;47.042;15.498;2023-02-19T08:40:51;97277.13;;;4.62;81.15
57442;BME280;43284;47.042;15.498;2023-02-19T08:43:16;97269.47;;;4.57;81.78
57442;BME280;43284;47.042;15.498;2023-02-19T08:45:44;97265.94;;;4.60;80.40
57442;BME280;43284;47.042;15.498;2023-02-19T08:48:11;97257.56;;;4.48;80.46
57442;BME280;43284;47.042;15.498;2023-02-19T08:50:37;97247.28;;;4.45;80.89
57442;BME280;43284;47.042;15.498;2023-02-19T08:53:05;97234.34;;;4.44;80.92
57442;BME280;43284;47.042;15.498;2023-02-19T08:55:31;97241.16;;;4.48;80.87
57442;BME280;43284;47.042;15.498;2023-02-19T08:57:57;97239.41;;;4.50;81.95
57442;BME280;43284;47.042;15.498;2023-02-19T09:00:22;97257.38;;;4.56;82.44
57442;BME280;43284;47.042;15.498;2023-02-19T09:02:48;97264.34;;;4.52;82.19
57442;BME280;43284;47.042;15.498;2023-02-19T09:05:14;97260.06;;;4.53;82.21
57442;BME280;43284;47.042;15.498;2023-02-19T09:07:41;97255.59;;;4.60;81.72
57442;BME280;43284;47.042;15.498;2023-02-19T09:10:07;97248.63;;;4.62;81.75
57442;BME280;43284;47.042;15.498;2023-02-19T09:12:34;97249.09;;;4.79;81.72
57442;BME280;43284;47.042;15.498;2023-02-19T09:14:59;97254.28;;;4.79;80.43
57442;BME280;43284;47.042;15.498;2023-02-19T09:17:26;97255.13;;;4.80;80.00
57442;BME280;43284;47.042;15.498;2023-02-19T09:19:52;97249.69;;;4.89;81.04
57442;BME280;43284;47.042;15.498;2023-02-19T09:22:17;97242.50;;;5.00;79.92
57442;BME280;43284;47.042;15.498;2023-02-19T09:24:43;97249.31;;;5.04;79.62
57442;BME280;43284;47.042;15.498;2023-02-19T09:27:14;97251.09;;;5.36;79.81
57442;BME280;43284;47.042;15.498;2023-02-19T09:29:40;97242.25;;;5.44;78.40
57442;BME280;43284;47.042;15.498;2023-02-19T09:32:05;97239.59;;;5.47;78.38
57442;BME280;43284;47.042;15.498;2023-02-19T09:34:31;97227.25;;;5.55;77.80
57442;BME280;43284;47.042;15.498;2023-02-19T09:36:56;97230.41;;;5.97;78.08
57442;BME280;43284;47.042;15.498;2023-02-19T09:39:22;97229.09;;;6.40;76.03
57442;BME280;43284;47.042;15.498;2023-02-19T09:46:54;97220.22;;;7.03;70.75
57442;BME280;43284;47.042;15.498;2023-02-19T09:49:37;97230.06;;;7.19;72.13
57442;BME280;43284;47.042;15.498;2023-02-19T09:52:12;97223.69;;;7.28;69.17
57442;BME280;43284;47.042;15.498;2023-02-19T09:54:40;97226.00;;;7.36;69.67
57442;BME280;43284;47.042;15.498;2023-02-19T09:57:11;97224.00;;;7.44;68.38
57442;BME280;43284;47.042;15.498;2023-02-19T09:59:45;97227.06;;;7.55;67.74
57442;BME280;43284;47.042;15.498;2023-02-19T10:02:17;97224.81;;;7.93;68.86
57442;BME280;43284;47.042;15.498;2023-02-19T10:04:45;97216.72;;;8.24;66.86
57442;BME280;43284;47.042;15.498;2023-02-19T10:07:15;97217.06;;;8.37;66.70
57442;BME280;43284;47.042;15.498;2023-02-19T10:09:44;97205.31;;;8.51;66.29
57442;BME280;43284;47.042;15.498;2023-02-19T10:12:15;97205.38;;;8.49;64.42
57442;BME280;43284;47.042;15.498;2023-02-19T10:14:46;97209.19;;;8.40;65.26
57442;BME280;43284;47.042;15.498;2023-02-19T10:17:22;97216.03;;;8.65;65.95
57442;BME280;43284;47.042;15.498;2023-02-19T10:19:49;97207.78;;;8.54;65.86
57442;BME280;43284;47.042;15.498;2023-02-19T10:22:14;97203.19;;;8.60;66.79
57442;BME280;43284;47.042;15.498;2023-02-19T10:24:41;97212.81;;;8.80;64.86
57442;BME280;43284;47.042;15.498;2023-02-19T10:27:14;97214.09;;;8.92;64.29
57442;BME280;43284;47.042;15.498;2023-02-19T10:29:43;97211.38;;;8.94;64.89
57442;BME280;43284;47.042;15.498;2023-02-19T10:32:17;97208.94;;;9.11;64.09
57442;BME280;43284;47.042;15.498;2023-02-19T10:34:45;97216.50;;;9.17;62.31
57442;BME280;43284;47.042;15.498;2023-02-19T10:37:14;97210.44;;;9.17;62.87
57442;BME280;43284;47.042;15.498;2023-02-19T10:42:21;97201.56;;;9.41;63.25
57442;BME280;43284;47.042;15.498;2023-02-19T10:44:52;97199.13;;;9.57;62.36
57442;BME280;43284;47.042;15.498;2023-02-19T10:47:21;97194.19;;;9.90;63.61
57442;BME280;43284;47.042;15.498;2023-02-19T10:49:49;97191.16;;;10.38;61.18
57442;BME280;43284;47.042;15.498;2023-02-19T10:52:28;97191.47;;;10.49;61.51
57442;BME280;43284;47.042;15.498;2023-02-19T10:55:12;97182.28;;;10.59;60.73
57442;BME280;43284;47.042;15.498;2023-02-19T10:57:39;97171.69;;;10.80;60.33
57442;BME280;43284;47.042;15.498;2023-02-19T11:02:40;97163.84;;;10.80;60.01
57442;BME280;43284;47.042;15.498;2023-02-19T11:07:54;97173.78;;;10.90;58.71
57442;BME280;43284;47.042;15.498;2023-02-19T11:10:38;97164.59;;;11.34;57.58
57442;BME280;43284;47.042;15.498;2023-02-19T11:13:06;97158.59;;;11.32;59.01
57442;BME280;43284;47.042;15.498;2023-02-19T11:15:33;97158.88;;;11.43;56.63
57442;BME280;43284;47.042;15.498;2023-02-19T11:20:56;97157.09;;;11.94;55.06
57442;BME280;43284;47.042;15.498;2023-02-19T11:23:35;97157.75;;;11.98;53.99
57442;BME280;43284;47.042;15.498;2023-02-19T11:26:12;97146.81;;;12.07;54.40
57442;BME280;43284;47.042;15.498;2023-02-19T11:28:40;97151.84;;;12.26;52.89
57442;BME280;43284;47.042;15.498;2023-02-19T11:33:57;97123.13;;;12.71;52.52
57442;BME280;43284;47.042;15.498;2023-02-19T11:36:34;97137.72;;;12.91;52.39
57442;BME280;43284;47.042;15.498;2023-02-19T11:39:20;97122.75;;;13.07;50.96
57442;BME280;43284;47.042;15.498;2023-02-19T11:42:00;97117.97;;;13.14;52.03
57442;BME280;43284;47.042;15.498;2023-02-19T11:48:00;97116.84;;;13.63;49.20
57442;BME280;43284;47.042;15.498;2023-02-19T11:53:32;97107.00;;;14.08;48.17
57442;BME280;43284;47.042;15.498;2023-02-19T11:56:22;97106.38;;;14.31;46.85
57442;BME280;43284;47.042;15.498;2023-02-19T11:59:04;97089.03;;;14.56;44.61
57442;BME280;43284;47.042;15.498;2023-02-19T12:01:55;97082.44;;;14.63;41.20
57442;BME280;43284;47.042;15.498;2023-02-19T12:07:26;97092.41;;;15.75;36.46
57442;BME280;43284;47.042;15.498;2023-02-19T12:34:59;97090.19;;;17.02;31.96
57442;BME280;43284;47.042;15.498;2023-02-19T12:37:50;97088.75;;;17.09;32.62
57442;BME280;43284;47.042;15.498;2023-02-19T12:40:33;97071.72;;;17.13;30.90
57442;BME280;43284;47.042;15.498;2023-02-19T12:51:32;97077.25;;;16.26;31.85
57442;BME280;43284;47.042;15.498;2023-02-19T12:54:11;97083.66;;;16.35;32.86
57442;BME280;43284;47.042;15.498;2023-02-19T12:56:54;97072.34;;;16.33;33.14
57442;BME280;43284;47.042;15.498;2023-02-19T12:59:43;97088.13;;;16.46;35.30
57442;BME280;43284;47.042;15.498;2023-02-19T13:05:01;97082.31;;;16.54;34.62
57442;BME280;43284;47.042;15.498;2023-02-19T13:10:19;97099.81;;;16.31;35.44
57442;BME280;43284;47.042;15.498;2023-02-19T13:12:48;97098.75;;;16.33;36.12
57442;BME280;43284;47.042;15.498;2023-02-19T13:17:47;97087.13;;;16.12;36.40
57442;BME280;43284;47.042;15.498;2023-02-19T13:20:31;97100.69;;;15.94;36.58
57442;BME280;43284;47.042;15.498;2023-02-19T13:36:45;97122.22;;;15.88;37.54
57442;BME280;43284;47.042;15.498;2023-02-19T13:39:14;97134.31;;;15.91;37.20
57442;BME280;43284;47.042;15.498;2023-02-19T13:41:47;97128.00;;;15.80;37.61
57442;BME280;43284;47.042;15.498;2023-02-19T13:44:19;97161.00;;;15.73;38.07
57442;BME280;43284;47.042;15.498;2023-02-19T13:46:47;97130.75;;;15.53;38.24
57442;BME280;43284;47.042;15.498;2023-02-19T14:06:07;97167.06;;;15.10;39.91
57442;BME280;43284;47.042;15.498;2023-02-19T14:08:57;97157.16;;;15.00;39.81
57442;BME280;43284;47.042;15.498;2023-02-19T14:25:34;97197.69;;;15.11;40.17
57442;BME280;43284;47.042;15.498;2023-02-19T14:28:25;97195.44;;;14.92;39.97
57442;BME280;43284;47.042;15.498;2023-02-19T14:30:58;97200.41;;;14.96;39.95
57442;BME280;43284;47.042;15.498;2023-02-19T14:33:31;97214.88;;;14.76;40.49
57442;BME280;43284;47.042;15.498;2023-02-19T14:36:02;97215.16;;;14.72;39.93
57442;BME280;43284;47.042;15.498;2023-02-19T14:38:52;97204.09;;;14.52;40.51
57442;BME280;43284;47.042;15.498;2023-02-19T14:41:19;97221.53;;;14.26;40.82
57442;BME280;43284;47.042;15.498;2023-02-19T14:43:49;97225.25;;;14.36;40.95
57442;BME280;43284;47.042;15.498;2023-02-19T14:48:48;97244.16;;;14.29;41.49
57442;BME280;43284;47.042;15.498;2023-02-19T14:51:24;97242.75;;;14.09;41.57
57442;BME280;43284;47.042;15.498;2023-02-19T14:53:52;97234.03;;;14.08;41.16
57442;BME280;43284;47.042;15.498;2023-02-19T14:56:31;97259.28;;;14.11;41.79
57442;BME280;43284;47.042;15.498;2023-02-19T15:01:37;97263.78;;;14.09;41.82
57442;BME280;43284;47.042;15.498;2023-02-19T15:04:04;97272.78;;;13.90;42.34
57442;BME280;43284;47.042;15.498;2023-02-19T15:06:31;97289.22;;;13.94;42.34
57442;BME280;43284;47.042;15.498;2023-02-19T15:09:03;97275.09;;;13.66;42.76
57442;BME280;43284;47.042;15.498;2023-02-19T15:11:30;97285.09;;;13.59;43.31
57442;BME280;43284;47.042;15.498;2023-02-19T15:14:04;97277.63;;;13.37;43.95
57442;BME280;43284;47.042;15.498;2023-02-19T15:16:33;97291.78;;;13.35;43.27
57442;BME280;43284;47.042;15.498;2023-02-19T15:19:00;97295.09;;;13.23;43.32
57442;BME280;43284;47.042;15.498;2023-02-19T15:21:31;97294.84;;;13.11;44.18
57442;BME280;43284;47.042;15.498;2023-02-19T15:24:00;97293.69;;;13.01;44.65
57442;BME280;43284;47.042;15.498;2023-02-19T15:26:41;97292.50;;;13.07;44.28
57442;BME280;43284;47.042;15.498;2023-02-19T15:29:18;97300.88;;;12.97;44.42
57442;BME280;43284;47.042;15.498;2023-02-19T15:31:53;97306.22;;;12.80;44.92
57442;BME280;43284;47.042;15.498;2023-02-19T15:34:21;97306.63;;;12.72;45.14
57442;BME280;43284;47.042;15.498;2023-02-19T15:36:49;97306.47;;;12.75;44.36